createdAt,value
2016-03-11T00:00:01.581Z,0
2016-03-11T00:01:01.568Z,0
2016-03-11T00:02:01.570Z,0
2016-03-11T00:03:01.589Z,0
2016-03-11T00:04:01.592Z,0
2016-03-11T00:05:01.609Z,0
2016-03-11T00:06:01.613Z,0
2016-03-11T00:07:01.647Z,0
2016-03-11T00:08:01.633Z,0
2016-03-11T00:09:01.636Z,0
2016-03-11T00:10:01.639Z,0
2016-03-11T00:11:01.673Z,0
2016-03-11T00:12:01.676Z,0
2016-03-11T00:13:01.679Z,0
2016-03-11T00:14:01.713Z,0
2016-03-11T00:15:01.700Z,0
2016-03-11T00:16:01.703Z,0
2016-03-11T00:17:01.705Z,0
2016-03-11T00:18:01.724Z,0
2016-03-11T00:19:01.788Z,0
2016-03-11T00:20:01.744Z,0
2016-03-11T00:21:01.778Z,0
2016-03-11T00:22:01.766Z,0
2016-03-11T00:23:01.783Z,0
2016-03-11T00:24:01.755Z,0
2016-03-11T00:25:01.789Z,0
2016-03-11T00:26:01.807Z,0
2016-03-11T00:27:01.794Z,0
2016-03-11T00:28:01.844Z,0
2016-03-11T00:29:01.846Z,0
2016-03-11T00:30:01.849Z,0
2016-03-11T00:31:01.837Z,0
2016-03-11T00:32:01.886Z,0
2016-03-11T00:33:01.857Z,0
2016-03-11T00:34:01.938Z,0
2016-03-11T00:35:01.878Z,0
2016-03-11T00:36:01.913Z,0
2016-03-11T00:37:01.901Z,0
2016-03-11T00:38:01.934Z,0
2016-03-11T00:39:01.906Z,0
2016-03-11T00:40:01.939Z,0
2016-03-11T00:41:01.957Z,0
2016-03-11T00:42:01.929Z,0
2016-03-11T00:43:01.978Z,0
2016-03-11T00:44:01.950Z,0
2016-03-11T00:45:02.000Z,0
2016-03-11T00:46:01.970Z,0
2016-03-11T00:47:15.942Z,0
2016-03-11T00:48:01.992Z,0
2016-03-11T00:49:01.994Z,0
2016-03-11T00:50:01.997Z,0
2016-03-11T00:51:02.047Z,0
2016-03-11T00:52:02.019Z,0
2016-03-11T00:53:02.022Z,0
2016-03-11T00:54:02.040Z,0
2016-03-11T00:55:02.058Z,0
2016-03-11T00:56:02.061Z,0
2016-03-11T00:57:02.064Z,0
2016-03-11T00:58:02.082Z,0
2016-03-11T00:59:02.085Z,0
2016-03-11T01:00:02.119Z,0
2016-03-11T01:01:02.105Z,0
2016-03-11T01:02:02.124Z,0
2016-03-11T01:03:02.142Z,0
2016-03-11T01:04:02.192Z,0
2016-03-11T01:05:02.194Z,0
2016-03-11T01:06:01.869Z,0
2016-03-11T01:07:02.152Z,0
2016-03-11T01:08:02.187Z,0
2016-03-11T01:09:02.174Z,0
2016-03-11T01:10:02.192Z,0
2016-03-11T01:11:02.210Z,0
2016-03-11T01:12:02.213Z,0
2016-03-11T01:13:02.231Z,0
2016-03-11T01:14:02.218Z,0
2016-03-11T01:15:02.221Z,0
2016-03-11T01:16:02.256Z,0
2016-03-11T01:17:02.304Z,0
2016-03-11T01:18:02.261Z,0
2016-03-11T01:19:02.342Z,0
2016-03-11T01:20:02.282Z,0
2016-03-11T01:21:02.301Z,0
2016-03-11T01:22:02.287Z,0
2016-03-11T01:23:02.305Z,0
2016-03-11T01:24:02.370Z,0
2016-03-11T01:25:02.545Z,0
2016-03-11T01:26:02.470Z,0
2016-03-11T01:27:16.442Z,0
2016-03-11T01:28:02.367Z,0
2016-03-11T01:29:02.353Z,0
2016-03-11T01:30:02.372Z,0
2016-03-11T01:31:02.390Z,0
2016-03-11T01:32:02.408Z,0
2016-03-11T01:33:02.427Z,0
2016-03-11T01:34:02.226Z,0
2016-03-11T01:35:02.400Z,0
2016-03-11T01:36:02.247Z,0
2016-03-11T01:37:02.297Z,0
2016-03-11T01:38:02.424Z,0
2016-03-11T01:39:02.459Z,0
2016-03-11T01:40:02.492Z,0
2016-03-11T01:41:02.479Z,0
2016-03-11T01:42:02.466Z,0
2016-03-11T01:43:02.468Z,0
2016-03-11T01:44:02.488Z,0
2016-03-11T01:45:02.585Z,0
2016-03-11T01:46:02.524Z,0
2016-03-11T01:47:02.558Z,0
2016-03-11T01:48:02.513Z,0
2016-03-11T01:49:02.516Z,0
2016-03-11T01:50:02.550Z,0
2016-03-11T01:51:02.569Z,0
2016-03-11T01:52:02.540Z,0
2016-03-11T01:53:02.590Z,0
2016-03-11T01:54:02.545Z,0
2016-03-11T01:55:02.626Z,0
2016-03-11T01:56:02.566Z,0
2016-03-11T01:57:02.617Z,0
2016-03-11T01:58:02.587Z,0
2016-03-11T01:59:02.664Z,0
2016-03-11T02:00:02.610Z,0
2016-03-11T02:01:02.616Z,0
2016-03-11T02:02:02.515Z,0
2016-03-11T02:03:02.601Z,0
2016-03-11T02:04:02.595Z,0
2016-03-11T02:05:02.594Z,0
2016-03-11T02:06:02.718Z,0
2016-03-11T02:07:02.608Z,0
2016-03-11T02:08:02.638Z,0
2016-03-11T02:09:02.606Z,0
2016-03-11T02:10:02.654Z,0
2016-03-11T02:11:02.624Z,0
2016-03-11T02:12:02.641Z,0
2016-03-11T02:13:02.658Z,0
2016-03-11T02:14:02.659Z,0
2016-03-11T02:15:02.693Z,0
2016-03-11T02:16:02.664Z,0
2016-03-11T02:17:02.589Z,0
2016-03-11T02:18:02.699Z,0
2016-03-11T02:19:02.686Z,0
2016-03-11T02:20:02.689Z,0
2016-03-11T02:21:02.739Z,0
2016-03-11T02:22:02.741Z,0
2016-03-11T02:23:02.729Z,0
2016-03-11T02:24:02.747Z,0
2016-03-11T02:25:02.781Z,0
2016-03-11T02:26:02.815Z,0
2016-03-11T02:27:02.755Z,0
2016-03-11T02:28:02.804Z,0
2016-03-11T02:29:02.807Z,0
2016-03-11T02:30:02.779Z,0
2016-03-11T02:31:02.796Z,0
2016-03-11T02:32:02.831Z,0
2016-03-11T02:33:02.818Z,0
2016-03-11T02:34:02.821Z,0
2016-03-11T02:35:02.823Z,0
2016-03-11T02:36:02.842Z,0
2016-03-11T02:37:02.844Z,0
2016-03-11T02:38:02.863Z,0
2016-03-11T02:39:02.865Z,0
2016-03-11T02:40:02.884Z,0
2016-03-11T02:41:02.871Z,0
2016-03-11T02:42:02.889Z,0
2016-03-11T02:43:02.876Z,0
2016-03-11T02:44:02.895Z,0
2016-03-11T02:45:02.898Z,0
2016-03-11T02:46:02.916Z,0
2016-03-11T02:47:02.919Z,0
2016-03-11T02:48:02.936Z,0
2016-03-11T02:49:02.939Z,0
2016-03-11T02:50:02.958Z,0
2016-03-11T02:51:02.975Z,0
2016-03-11T02:52:02.963Z,0
2016-03-11T02:53:02.965Z,0
2016-03-11T02:54:02.983Z,0
2016-03-11T02:55:02.986Z,0
2016-03-11T02:56:03.005Z,0
2016-03-11T02:57:03.007Z,0
2016-03-11T02:58:03.026Z,0
2016-03-11T02:59:03.013Z,0
2016-03-11T03:00:03.046Z,0
2016-03-11T03:01:03.035Z,0
2016-03-11T03:02:03.084Z,0
2016-03-11T03:03:03.040Z,0
2016-03-11T03:04:03.104Z,0
2016-03-11T03:05:03.075Z,0
2016-03-11T03:06:02.937Z,0
2016-03-11T03:07:03.081Z,0
2016-03-11T03:08:03.131Z,0
2016-03-11T03:09:03.149Z,0
2016-03-11T03:10:03.151Z,0
2016-03-11T03:11:03.108Z,0
2016-03-11T03:12:03.126Z,0
2016-03-11T03:13:03.128Z,0
2016-03-11T03:14:03.147Z,0
2016-03-11T03:15:03.150Z,0
2016-03-11T03:16:03.136Z,0
2016-03-11T03:17:03.202Z,0
2016-03-11T03:18:03.204Z,0
2016-03-11T03:19:03.176Z,0
2016-03-11T03:20:03.211Z,0
2016-03-11T03:21:03.213Z,0
2016-03-11T03:22:03.216Z,0
2016-03-11T03:23:03.265Z,0
2016-03-11T03:24:03.268Z,0
2016-03-11T03:25:03.286Z,0
2016-03-11T03:27:03.276Z,0
2016-03-11T03:28:03.232Z,0
2016-03-11T03:29:03.297Z,0
2016-03-11T03:30:17.377Z,0
2016-03-11T03:31:03.301Z,0
2016-03-11T03:32:03.274Z,0
2016-03-11T03:33:03.292Z,0
2016-03-11T03:34:03.201Z,0
2016-03-11T03:35:03.328Z,0
2016-03-11T03:36:03.379Z,0
2016-03-11T03:37:03.334Z,0
2016-03-11T03:38:03.352Z,0
2016-03-11T03:39:03.355Z,0
2016-03-11T03:40:03.357Z,0
2016-03-11T03:41:03.360Z,0
2016-03-11T03:42:03.395Z,0
2016-03-11T03:43:03.490Z,0
2016-03-11T03:44:03.603Z,0
2016-03-11T03:45:03.403Z,0
2016-03-11T03:46:03.436Z,0
2016-03-11T03:47:03.470Z,0
2016-03-11T03:48:03.441Z,0
2016-03-11T03:49:03.413Z,0
2016-03-11T03:50:03.463Z,0
2016-03-11T03:51:03.466Z,0
2016-03-11T03:52:03.436Z,0
2016-03-11T03:53:03.455Z,0
2016-03-11T03:54:03.457Z,0
2016-03-11T03:55:03.476Z,0
2016-03-11T03:56:03.479Z,0
2016-03-11T03:57:03.482Z,0
2016-03-11T03:58:03.499Z,0
2016-03-11T03:59:03.393Z,0
2016-03-11T04:00:03.521Z,0
2016-03-11T04:01:03.524Z,0
2016-03-11T04:02:03.527Z,0
2016-03-11T04:03:03.529Z,0
2016-03-11T04:04:03.562Z,0
2016-03-11T04:05:03.566Z,0
2016-03-11T04:06:03.552Z,0
2016-03-11T04:07:03.540Z,0
2016-03-11T04:08:03.604Z,0
2016-03-11T04:09:03.639Z,0
2016-03-11T04:10:03.610Z,0
2016-03-11T04:11:03.597Z,0
2016-03-11T04:12:03.615Z,0
2016-03-11T04:13:03.634Z,0
2016-03-11T04:14:03.605Z,0
2016-03-11T04:15:03.639Z,0
2016-03-11T04:16:03.626Z,0
2016-03-11T04:17:03.691Z,0
2016-03-11T04:18:03.679Z,0
2016-03-11T04:19:03.634Z,0
2016-03-11T04:20:03.528Z,0
2016-03-11T04:21:03.686Z,0
2016-03-11T04:22:03.705Z,0
2016-03-11T04:23:03.692Z,0
2016-03-11T04:24:03.711Z,0
2016-03-11T04:25:03.713Z,0
2016-03-11T04:26:03.716Z,0
2016-03-11T04:27:03.718Z,0
2016-03-11T04:28:03.783Z,0
2016-03-11T04:29:03.771Z,0
2016-03-11T04:30:03.742Z,0
2016-03-11T04:31:03.776Z,0
2016-03-11T04:32:03.763Z,0
2016-03-11T04:33:03.782Z,0
2016-03-11T04:34:03.863Z,0
2016-03-11T04:35:03.771Z,0
2016-03-11T04:36:03.821Z,0
2016-03-11T04:37:03.807Z,0
2016-03-11T04:38:03.810Z,0
2016-03-11T04:39:03.860Z,0
2016-03-11T04:40:03.128Z,0
2016-03-11T04:41:03.912Z,0
2016-03-11T04:42:03.852Z,0
2016-03-11T04:43:03.886Z,0
2016-03-11T04:44:03.858Z,0
2016-03-11T04:45:03.954Z,0
2016-03-11T04:46:03.895Z,0
2016-03-11T04:47:03.882Z,0
2016-03-11T04:48:03.869Z,0
2016-03-11T04:49:03.886Z,0
2016-03-11T04:50:03.906Z,0
2016-03-11T04:51:03.923Z,0
2016-03-11T04:52:03.941Z,0
2016-03-11T04:53:03.929Z,0
2016-03-11T04:54:03.916Z,0
2016-03-11T04:55:03.966Z,0
2016-03-11T04:56:03.953Z,0
2016-03-11T04:57:03.971Z,0
2016-03-11T04:58:03.958Z,0
2016-03-11T04:59:03.977Z,0
2016-03-11T05:00:04.026Z,0
2016-03-11T05:01:03.996Z,0
2016-03-11T05:02:04.016Z,0
2016-03-11T05:03:04.034Z,0
2016-03-11T05:04:04.021Z,0
2016-03-11T05:05:04.023Z,0
2016-03-11T05:06:03.902Z,0
2016-03-11T05:07:04.050Z,0
2016-03-11T05:08:04.085Z,0
2016-03-11T05:09:04.041Z,0
2016-03-11T05:10:04.090Z,0
2016-03-11T05:11:04.061Z,0
2016-03-11T05:12:04.110Z,0
2016-03-11T05:13:04.082Z,0
2016-03-11T05:14:04.147Z,0
2016-03-11T05:15:04.104Z,0
2016-03-11T05:16:04.168Z,0
2016-03-11T05:17:04.093Z,0
2016-03-11T05:18:04.096Z,0
2016-03-11T05:19:04.114Z,0
2016-03-11T05:20:04.132Z,0
2016-03-11T05:21:04.134Z,0
2016-03-11T05:22:04.169Z,0
2016-03-11T05:23:04.156Z,0
2016-03-11T05:24:04.159Z,0
2016-03-11T05:25:04.177Z,0
2016-03-11T05:26:04.180Z,0
2016-03-11T05:27:04.183Z,0
2016-03-11T05:28:04.170Z,0
2016-03-11T05:29:04.234Z,0
2016-03-11T05:30:04.191Z,0
2016-03-11T05:31:04.239Z,0
2016-03-11T05:32:04.228Z,0
2016-03-11T05:33:04.261Z,0
2016-03-11T05:34:04.264Z,0
2016-03-11T05:35:04.282Z,0
2016-03-11T05:36:04.253Z,0
2016-03-11T05:37:04.288Z,0
2016-03-11T05:38:04.274Z,0
2016-03-11T05:39:04.277Z,0
2016-03-11T05:40:04.279Z,0
2016-03-11T05:41:04.330Z,0
2016-03-11T05:42:04.285Z,0
2016-03-11T05:43:04.319Z,0
2016-03-11T05:44:04.307Z,5
2016-03-11T05:45:04.324Z,5
2016-03-11T05:46:04.327Z,5
2016-03-11T05:47:04.329Z,5
2016-03-11T05:48:04.990Z,5
2016-03-11T05:49:04.382Z,5
2016-03-11T05:50:04.354Z,5
2016-03-11T05:51:04.372Z,5
2016-03-11T05:52:04.359Z,5
2016-03-11T05:53:04.268Z,5
2016-03-11T05:54:04.395Z,5
2016-03-11T05:55:04.476Z,10
2016-03-11T05:56:04.463Z,10
2016-03-11T05:57:04.420Z,10
2016-03-11T05:58:04.453Z,10
2016-03-11T05:59:04.425Z,10
2016-03-11T06:00:04.427Z,10
2016-03-11T06:01:04.492Z,10
2016-03-11T06:02:04.448Z,10
2016-03-11T06:03:04.545Z,10
2016-03-11T06:04:04.500Z,10
2016-03-11T06:05:04.472Z,10
2016-03-11T06:06:03.756Z,10
2016-03-11T06:07:04.478Z,10
2016-03-11T06:08:04.527Z,10
2016-03-11T06:09:04.514Z,10
2016-03-11T06:10:04.516Z,10
2016-03-11T06:11:04.504Z,10
2016-03-11T06:12:04.522Z,10
2016-03-11T06:13:04.556Z,10
2016-03-11T06:14:04.544Z,15
2016-03-11T06:15:04.593Z,15
2016-03-11T06:16:04.565Z,15
2016-03-11T06:17:04.582Z,20
2016-03-11T06:18:04.585Z,20
2016-03-11T06:19:04.587Z,25
2016-03-11T06:20:04.590Z,25
2016-03-11T06:21:04.609Z,30
2016-03-11T06:22:04.627Z,30
2016-03-11T06:23:04.615Z,35
2016-03-11T06:24:04.648Z,35
2016-03-11T06:25:04.651Z,35
2016-03-11T06:26:04.731Z,35
2016-03-11T06:27:04.640Z,35
2016-03-11T06:28:04.675Z,40
2016-03-11T06:29:04.677Z,40
2016-03-11T06:30:04.664Z,40
2016-03-11T06:31:04.667Z,40
2016-03-11T06:32:04.686Z,45
2016-03-11T06:33:04.578Z,45
2016-03-11T06:34:04.691Z,50
2016-03-11T06:35:04.740Z,50
2016-03-11T06:36:04.727Z,50
2016-03-11T06:37:04.792Z,55
2016-03-11T06:38:04.749Z,55
2016-03-11T06:39:04.751Z,55
2016-03-11T06:40:04.754Z,55
2016-03-11T06:41:04.803Z,50
2016-03-11T06:42:04.774Z,50
2016-03-11T06:43:04.808Z,50
2016-03-11T06:44:04.826Z,45
2016-03-11T06:45:04.845Z,45
2016-03-11T06:46:04.801Z,40
2016-03-11T06:47:04.819Z,40
2016-03-11T06:48:04.868Z,35
2016-03-11T06:49:04.840Z,35
2016-03-11T06:50:04.842Z,35
2016-03-11T06:51:04.892Z,35
2016-03-11T06:52:04.879Z,35
2016-03-11T06:53:04.851Z,35
2016-03-11T06:54:04.901Z,35
2016-03-11T06:55:04.920Z,35
2016-03-11T06:56:04.906Z,40
2016-03-11T06:57:04.909Z,40
2016-03-11T06:58:04.943Z,45
2016-03-11T06:59:04.946Z,55
2016-03-11T07:00:04.948Z,70
2016-03-11T07:01:04.967Z,80
2016-03-11T07:02:04.938Z,95
2016-03-11T07:03:04.972Z,110
2016-03-11T07:04:04.974Z,115
2016-03-11T07:05:04.961Z,120
2016-03-11T07:06:04.980Z,125
2016-03-11T07:07:05.014Z,130
2016-03-11T07:08:05.000Z,130
2016-03-11T07:09:05.035Z,140
2016-03-11T07:10:05.038Z,145
2016-03-11T07:11:05.040Z,135
2016-03-11T07:12:05.043Z,130
2016-03-11T07:13:05.046Z,125
2016-03-11T07:14:05.049Z,135
2016-03-11T07:15:05.066Z,140
2016-03-11T07:16:05.085Z,150
2016-03-11T07:17:05.071Z,155
2016-03-11T07:18:05.107Z,160
2016-03-11T07:19:05.109Z,170
2016-03-11T07:20:05.127Z,165
2016-03-11T07:21:05.145Z,160
2016-03-11T07:22:05.132Z,165
2016-03-11T07:23:05.166Z,205
2016-03-11T07:24:05.169Z,290
2016-03-11T07:25:05.187Z,215
2016-03-11T07:26:05.221Z,145
2016-03-11T07:27:05.192Z,150
2016-03-11T07:28:05.226Z,150
2016-03-11T07:29:05.229Z,155
2016-03-11T07:30:05.217Z,165
2016-03-11T07:31:05.266Z,165
2016-03-11T07:32:05.269Z,165
2016-03-11T07:33:05.272Z,165
2016-03-11T07:34:05.289Z,160
2016-03-11T07:35:05.292Z,165
2016-03-11T07:36:05.294Z,165
2016-03-11T07:37:05.328Z,170
2016-03-11T07:38:05.331Z,170
2016-03-11T07:39:05.381Z,170
2016-03-11T07:40:05.368Z,170
2016-03-11T07:41:05.371Z,180
2016-03-11T07:42:05.357Z,185
2016-03-11T07:43:05.392Z,185
2016-03-11T07:44:05.426Z,185
2016-03-11T07:45:05.397Z,195
2016-03-11T07:46:05.478Z,215
2016-03-11T07:47:05.434Z,225
2016-03-11T07:48:05.468Z,225
2016-03-11T07:49:05.454Z,215
2016-03-11T07:50:05.474Z,210
2016-03-11T07:51:05.476Z,205
2016-03-11T07:52:05.526Z,205
2016-03-11T07:53:05.528Z,215
2016-03-11T07:54:05.578Z,225
2016-03-11T07:55:05.580Z,235
2016-03-11T07:56:05.583Z,255
2016-03-11T07:57:05.570Z,260
2016-03-11T07:58:05.589Z,230
2016-03-11T07:59:05.606Z,220
2016-03-11T08:00:05.656Z,230
2016-03-11T08:01:05.690Z,250
2016-03-11T08:02:05.692Z,285
2016-03-11T08:03:05.665Z,265
2016-03-11T08:04:05.683Z,275
2016-03-11T08:05:05.561Z,180
2016-03-11T08:06:05.688Z,440
2016-03-11T08:07:05.738Z,410
2016-03-11T08:08:05.756Z,285
2016-03-11T08:09:05.790Z,340
2016-03-11T08:10:05.792Z,200
2016-03-11T08:11:05.811Z,215
2016-03-11T08:12:05.861Z,220
2016-03-11T08:13:05.833Z,255
2016-03-11T08:14:05.850Z,205
2016-03-11T08:15:05.885Z,230
2016-03-11T08:16:05.919Z,255
2016-03-11T08:17:05.921Z,285
2016-03-11T08:18:05.924Z,275
2016-03-11T08:19:05.927Z,270
2016-03-11T08:20:05.960Z,195
2016-03-11T08:21:05.994Z,165
2016-03-11T08:22:06.169Z,170
2016-03-11T08:23:06.015Z,170
2016-03-11T08:24:06.049Z,235
2016-03-11T08:25:06.020Z,685
2016-03-11T08:26:06.070Z,620
2016-03-11T08:27:06.073Z,585
2016-03-11T08:28:06.059Z,230
2016-03-11T08:29:06.093Z,215
2016-03-11T08:30:06.112Z,230
2016-03-11T08:31:06.162Z,200
2016-03-11T08:32:06.133Z,205
2016-03-11T08:33:06.151Z,220
2016-03-11T08:34:06.170Z,315
2016-03-11T08:35:06.219Z,335
2016-03-11T08:36:06.206Z,270
2016-03-11T08:37:06.099Z,205
2016-03-11T08:38:06.275Z,235
2016-03-11T08:39:06.277Z,220
2016-03-11T08:40:06.311Z,225
2016-03-11T08:41:06.267Z,210
2016-03-11T08:42:06.300Z,175
2016-03-11T08:43:06.366Z,170
2016-03-11T08:44:06.368Z,220
2016-03-11T08:45:06.480Z,275
2016-03-11T08:46:06.577Z,340
2016-03-11T08:47:06.438Z,315
2016-03-11T08:48:06.426Z,295
2016-03-11T08:49:07.132Z,315
2016-03-11T08:50:06.494Z,275
2016-03-11T08:51:06.466Z,330
2016-03-11T08:52:06.515Z,530
2016-03-11T08:53:06.502Z,510
2016-03-11T08:54:06.535Z,405
2016-03-11T08:55:06.538Z,370
2016-03-11T08:56:06.557Z,355
2016-03-11T08:57:06.606Z,365
2016-03-11T08:58:06.593Z,345
2016-03-11T08:59:06.596Z,350
2016-03-11T09:00:06.677Z,365
2016-03-11T09:01:06.648Z,375
2016-03-11T09:02:06.697Z,385
2016-03-11T09:03:06.685Z,355
2016-03-11T09:04:06.734Z,350
2016-03-11T09:05:06.736Z,340
2016-03-11T09:06:06.771Z,335
2016-03-11T09:07:06.867Z,315
2016-03-11T09:08:06.792Z,290
2016-03-11T09:09:06.638Z,270
2016-03-11T09:10:06.813Z,275
2016-03-11T09:11:06.988Z,265
2016-03-11T09:12:06.850Z,225
2016-03-11T09:13:06.946Z,240
2016-03-11T09:14:06.886Z,270
2016-03-11T09:15:06.952Z,275
2016-03-11T09:16:06.908Z,280
2016-03-11T09:17:06.972Z,330
2016-03-11T09:18:06.960Z,340
2016-03-11T09:19:07.009Z,235
2016-03-11T09:20:07.012Z,230
2016-03-11T09:21:07.030Z,265
2016-03-11T09:22:07.048Z,275
2016-03-11T09:23:07.067Z,280
2016-03-11T09:24:07.101Z,225
2016-03-11T09:25:07.104Z,205
2016-03-11T09:26:07.168Z,160
2016-03-11T09:27:07.156Z,150
2016-03-11T09:28:07.237Z,165
2016-03-11T09:29:07.224Z,180
2016-03-11T09:30:07.242Z,190
2016-03-11T09:31:07.229Z,190
2016-03-11T09:32:07.248Z,205
2016-03-11T09:33:07.234Z,235
2016-03-11T09:34:07.314Z,245
2016-03-11T09:35:07.318Z,265
2016-03-11T09:36:07.336Z,280
2016-03-11T09:37:07.386Z,275
2016-03-11T09:38:07.358Z,265
2016-03-11T09:39:07.423Z,250
2016-03-11T09:40:07.409Z,215
2016-03-11T09:41:07.475Z,215
2016-03-11T09:42:07.430Z,215
2016-03-11T09:43:07.511Z,230
2016-03-11T09:44:07.483Z,265
2016-03-11T09:45:07.360Z,260
2016-03-11T09:46:07.519Z,270
2016-03-11T09:47:07.538Z,265
2016-03-11T09:48:07.555Z,280
2016-03-11T09:49:07.590Z,280
2016-03-11T09:50:07.639Z,260
2016-03-11T09:51:07.611Z,265
2016-03-11T09:52:07.661Z,395
2016-03-11T09:53:07.648Z,510
2016-03-11T09:54:07.697Z,435
2016-03-11T09:55:07.700Z,385
2016-03-11T09:56:07.718Z,310
2016-03-11T09:57:07.767Z,245
2016-03-11T09:58:07.755Z,250
2016-03-11T09:59:07.804Z,305
2016-03-11T10:00:07.807Z,260
2016-03-11T10:01:07.840Z,265
2016-03-11T10:02:07.843Z,210
2016-03-11T10:03:07.862Z,190
2016-03-11T10:04:07.864Z,165
2016-03-11T10:05:07.898Z,190
2016-03-11T10:06:07.901Z,310
2016-03-11T10:07:07.941Z,330
2016-03-11T10:08:07.959Z,145
2016-03-11T10:09:08.009Z,145
2016-03-11T10:10:07.996Z,145
2016-03-11T10:11:08.014Z,180
2016-03-11T10:12:08.048Z,210
2016-03-11T10:13:08.066Z,190
2016-03-11T10:14:08.117Z,245
2016-03-11T10:15:08.103Z,190
2016-03-11T10:16:08.168Z,235
2016-03-11T10:17:08.156Z,235
2016-03-11T10:18:08.018Z,175
2016-03-11T10:19:08.364Z,255
2016-03-11T10:20:08.194Z,230
2016-03-11T10:21:08.214Z,265
2016-03-11T10:22:08.263Z,270
2016-03-11T10:23:08.249Z,265
2016-03-11T10:24:08.315Z,260
2016-03-11T10:25:08.302Z,255
2016-03-11T10:26:08.305Z,260
2016-03-11T10:27:08.354Z,230
2016-03-11T10:28:08.357Z,240
2016-03-11T10:29:08.390Z,245
2016-03-11T10:30:08.440Z,250
2016-03-11T10:31:08.427Z,215
2016-03-11T10:32:08.461Z,165
2016-03-11T10:33:08.465Z,230
2016-03-11T10:34:08.482Z,225
2016-03-11T10:35:08.501Z,200
2016-03-11T10:36:08.518Z,140
2016-03-11T10:37:08.553Z,205
2016-03-11T10:38:08.556Z,220
2016-03-11T10:39:08.589Z,180
2016-03-11T10:40:08.609Z,140
2016-03-11T10:41:08.611Z,210
2016-03-11T10:42:08.659Z,190
2016-03-11T10:43:08.694Z,95
2016-03-11T10:44:08.681Z,100
2016-03-11T10:45:08.731Z,110
2016-03-11T10:46:08.717Z,125
2016-03-11T10:47:08.596Z,220
2016-03-11T10:48:08.770Z,170
2016-03-11T10:49:08.788Z,235
2016-03-11T10:50:08.806Z,230
2016-03-11T10:51:08.825Z,195
2016-03-11T10:52:08.875Z,140
2016-03-11T10:53:08.893Z,175
2016-03-11T10:54:08.927Z,235
2016-03-11T10:55:08.899Z,170
2016-03-11T10:56:08.932Z,185
2016-03-11T10:57:08.966Z,90
2016-03-11T10:58:08.984Z,95
2016-03-11T10:59:09.003Z,100
2016-03-11T11:00:09.037Z,115
2016-03-11T11:01:09.024Z,105
2016-03-11T11:02:09.088Z,100
2016-03-11T11:03:09.091Z,90
2016-03-11T11:04:09.110Z,95
2016-03-11T11:05:09.105Z,110
2016-03-11T11:06:09.093Z,115
2016-03-11T11:07:09.144Z,115
2016-03-11T11:08:09.116Z,105
2016-03-11T11:09:09.165Z,105
2016-03-11T11:10:09.158Z,100
2016-03-11T11:11:09.140Z,95
2016-03-11T11:12:09.168Z,95
2016-03-11T11:13:09.182Z,100
2016-03-11T11:14:09.179Z,95
2016-03-11T11:15:09.225Z,95
2016-03-11T11:16:09.257Z,95
2016-03-11T11:17:09.272Z,90
2016-03-11T11:18:09.273Z,90
2016-03-11T11:19:09.290Z,85
2016-03-11T11:20:09.307Z,85
2016-03-11T11:21:09.324Z,85
2016-03-11T11:22:09.342Z,90
2016-03-11T11:23:09.360Z,90
2016-03-11T11:24:09.330Z,90
2016-03-11T11:25:09.410Z,90
2016-03-11T11:26:09.398Z,90
2016-03-11T11:27:09.446Z,95
2016-03-11T11:28:09.463Z,85
2016-03-11T11:29:09.466Z,80
2016-03-11T11:30:09.500Z,75
2016-03-11T11:31:09.535Z,70
2016-03-11T11:32:09.412Z,70
2016-03-11T11:33:09.539Z,70
2016-03-11T11:34:09.558Z,70
2016-03-11T11:35:09.560Z,70
2016-03-11T11:36:09.766Z,70
2016-03-11T11:37:09.629Z,70
2016-03-11T11:38:09.631Z,70
2016-03-11T11:39:09.712Z,70
2016-03-11T11:40:09.667Z,65
2016-03-11T11:41:09.498Z,60
2016-03-11T11:42:09.689Z,60
2016-03-11T11:43:09.738Z,55
2016-03-11T11:44:09.741Z,55
2016-03-11T11:45:09.759Z,55
2016-03-11T11:46:09.839Z,55
2016-03-11T11:47:09.827Z,55
2016-03-11T11:48:09.799Z,60
2016-03-11T11:49:09.847Z,65
2016-03-11T11:50:09.819Z,70
2016-03-11T11:51:09.853Z,75
2016-03-11T11:52:09.872Z,80
2016-03-11T11:53:09.890Z,85
2016-03-11T11:54:09.924Z,90
2016-03-11T11:55:09.943Z,85
2016-03-11T11:56:09.930Z,95
2016-03-11T11:57:09.994Z,105
2016-03-11T11:58:09.966Z,100
2016-03-11T11:59:10.000Z,90
2016-03-11T12:00:10.096Z,80
2016-03-11T12:01:10.037Z,75
2016-03-11T12:02:10.055Z,80
2016-03-11T12:03:10.058Z,80
2016-03-11T12:04:10.060Z,80
2016-03-11T12:05:10.095Z,75
2016-03-11T12:06:10.097Z,75
2016-03-11T12:07:10.178Z,75
2016-03-11T12:08:10.009Z,70
2016-03-11T12:09:10.183Z,65
2016-03-11T12:10:10.186Z,60
2016-03-11T12:11:10.236Z,60
2016-03-11T12:12:10.206Z,60
2016-03-11T12:13:10.226Z,60
2016-03-11T12:14:10.259Z,65
2016-03-11T12:15:10.278Z,65
2016-03-11T12:16:10.280Z,75
2016-03-11T12:17:10.330Z,85
2016-03-11T12:18:10.317Z,90
2016-03-11T12:19:10.319Z,95
2016-03-11T12:20:10.353Z,105
2016-03-11T12:21:10.372Z,115
2016-03-11T12:22:10.406Z,165
2016-03-11T12:23:10.424Z,140
2016-03-11T12:24:10.396Z,125
2016-03-11T12:25:10.430Z,180
2016-03-11T12:26:10.432Z,185
2016-03-11T12:27:10.450Z,180
2016-03-11T12:28:10.546Z,180
2016-03-11T12:29:10.487Z,130
2016-03-11T12:30:10.552Z,130
2016-03-11T12:31:10.540Z,135
2016-03-11T12:32:10.557Z,170
2016-03-11T12:33:10.576Z,110
2016-03-11T12:34:10.579Z,100
2016-03-11T12:35:10.644Z,95
2016-03-11T12:36:10.631Z,95
2016-03-11T12:37:10.665Z,85
2016-03-11T12:38:10.683Z,90
2016-03-11T12:39:10.670Z,85
2016-03-11T12:40:10.689Z,80
2016-03-11T12:41:10.691Z,75
2016-03-11T12:42:10.756Z,75
2016-03-11T12:43:10.633Z,75
2016-03-11T12:44:10.746Z,75
2016-03-11T12:45:10.936Z,75
2016-03-11T12:46:10.783Z,80
2016-03-11T12:47:10.817Z,80
2016-03-11T12:48:10.835Z,75
2016-03-11T12:49:10.869Z,70
2016-03-11T12:50:10.856Z,60
2016-03-11T12:51:10.922Z,50
2016-03-11T12:52:10.908Z,45
2016-03-11T12:53:10.927Z,40
2016-03-11T12:54:10.992Z,40
2016-03-11T12:55:10.963Z,40
2016-03-11T12:56:10.966Z,45
2016-03-11T12:57:11.000Z,45
2016-03-11T12:58:11.033Z,45
2016-03-11T12:59:11.036Z,45
2016-03-11T13:00:11.085Z,45
2016-03-11T13:01:11.057Z,45
2016-03-11T13:02:11.169Z,45
2016-03-11T13:03:11.125Z,45
2016-03-11T13:04:11.112Z,45
2016-03-11T13:05:11.162Z,45
2016-03-11T13:06:11.165Z,45
2016-03-11T13:07:11.167Z,50
2016-03-11T13:08:11.201Z,50
2016-03-11T13:09:11.204Z,55
2016-03-11T13:10:11.207Z,55
2016-03-11T13:11:11.287Z,55
2016-03-11T13:12:11.259Z,55
2016-03-11T13:13:11.278Z,55
2016-03-11T13:14:11.280Z,50
2016-03-11T13:15:11.314Z,50
2016-03-11T13:16:11.332Z,45
2016-03-11T13:17:11.334Z,45
2016-03-11T13:18:11.353Z,45
2016-03-11T13:19:11.433Z,45
2016-03-11T13:20:11.405Z,45
2016-03-11T13:21:11.424Z,40
2016-03-11T13:22:11.410Z,40
2016-03-11T13:23:11.475Z,40
2016-03-11T13:24:11.463Z,40
2016-03-11T13:25:11.481Z,45
2016-03-11T13:26:11.484Z,45
2016-03-11T13:27:11.361Z,45
2016-03-11T13:28:11.364Z,45
2016-03-11T13:29:11.555Z,45
2016-03-11T13:30:11.417Z,45
2016-03-11T13:31:11.591Z,45
2016-03-11T13:32:11.594Z,45
2016-03-11T13:33:11.596Z,45
2016-03-11T13:34:11.615Z,40
2016-03-11T13:35:11.633Z,40
2016-03-11T13:36:11.682Z,40
2016-03-11T13:37:11.685Z,40
2016-03-11T13:38:11.876Z,40
2016-03-11T13:39:11.706Z,40
2016-03-11T13:40:11.740Z,40
2016-03-11T13:41:11.806Z,40
2016-03-11T13:42:11.731Z,40
2016-03-11T13:43:11.764Z,40
2016-03-11T13:44:11.845Z,40
2016-03-11T13:45:11.801Z,35
2016-03-11T13:46:11.819Z,35
2016-03-11T13:47:11.681Z,35
2016-03-11T13:48:11.840Z,35
2016-03-11T13:49:11.858Z,35
2016-03-11T13:50:11.892Z,35
2016-03-11T13:51:11.895Z,35
2016-03-11T13:52:11.929Z,30
2016-03-11T13:53:11.931Z,30
2016-03-11T13:54:11.934Z,30
2016-03-11T13:55:11.921Z,30
2016-03-11T13:56:11.971Z,30
2016-03-11T13:57:12.005Z,30
2016-03-11T13:58:11.976Z,30
2016-03-11T13:59:12.041Z,30
2016-03-11T14:00:12.013Z,30
2016-03-11T14:01:12.047Z,25
2016-03-11T14:02:12.050Z,25
2016-03-11T14:03:12.068Z,25
2016-03-11T14:04:12.102Z,25
2016-03-11T14:05:12.136Z,25
2016-03-11T14:06:12.123Z,25
2016-03-11T14:07:12.188Z,25
2016-03-11T14:08:12.143Z,25
2016-03-11T14:09:12.162Z,25
2016-03-11T14:10:12.212Z,25
2016-03-11T14:11:12.167Z,25
2016-03-11T14:12:12.045Z,20
2016-03-11T14:13:12.266Z,20
2016-03-11T14:14:12.253Z,20
2016-03-11T14:15:12.272Z,20
2016-03-11T14:16:12.259Z,20
2016-03-11T14:17:12.309Z,20
2016-03-11T14:18:12.312Z,15
2016-03-11T14:19:12.330Z,15